createdAt,value
2022-07-29T00:00:11.860Z,21.35
2022-07-29T00:01:18.890Z,21.33
2022-07-29T00:02:11.869Z,21.34
2022-07-29T00:03:11.914Z,21.39
2022-07-29T00:04:12.016Z,21.46
2022-07-29T00:06:16.324Z,21.45
2022-07-29T00:07:11.906Z,21.43
2022-07-29T00:08:12.723Z,21.44
2022-07-29T00:09:11.879Z,21.47
2022-07-29T00:10:11.895Z,21.55
2022-07-29T00:11:11.877Z,21.65
2022-07-29T00:12:11.889Z,21.74
2022-07-29T00:13:11.902Z,21.79
2022-07-29T00:14:12.096Z,21.83
2022-07-29T00:15:11.879Z,21.88
2022-07-29T00:16:11.917Z,21.91
2022-07-29T00:17:11.908Z,21.96
2022-07-29T00:18:11.906Z,22.01
2022-07-29T00:19:11.930Z,22.03
2022-07-29T00:20:11.908Z,21.99
2022-07-29T00:21:11.887Z,21.85
2022-07-29T00:22:11.897Z,21.76
2022-07-29T00:23:13.546Z,21.66
2022-07-29T00:24:12.028Z,21.61
2022-07-29T00:25:11.938Z,21.56
2022-07-29T00:26:11.921Z,21.45
2022-07-29T00:27:11.944Z,21.37
2022-07-29T00:28:11.925Z,21.33
2022-07-29T00:29:33.686Z,21.24
2022-07-29T00:30:11.947Z,21.20
2022-07-29T00:31:12.012Z,21.15
2022-07-29T00:32:11.943Z,21.12
2022-07-29T00:33:11.945Z,21.11
2022-07-29T00:34:12.104Z,21.12
2022-07-29T00:35:11.941Z,21.14
2022-07-29T00:36:11.958Z,21.19
2022-07-29T00:37:11.958Z,21.25
2022-07-29T00:38:11.945Z,21.32
2022-07-29T00:39:11.946Z,21.37
2022-07-29T00:40:11.946Z,21.40
2022-07-29T00:41:11.973Z,21.42
2022-07-29T00:42:12.018Z,21.40
2022-07-29T00:43:16.510Z,21.35
2022-07-29T00:45:11.999Z,21.39
2022-07-29T00:46:12.030Z,21.44
2022-07-29T00:49:12.105Z,21.42
2022-07-29T00:50:11.979Z,21.44
2022-07-29T00:51:11.990Z,21.48
2022-07-29T00:52:11.988Z,21.53
2022-07-29T00:53:11.994Z,21.58
2022-07-29T00:54:12.154Z,21.60
2022-07-29T00:55:11.988Z,21.63
2022-07-29T00:56:12.039Z,21.69
2022-07-29T00:57:12.022Z,21.73
2022-07-29T00:59:12.050Z,21.67
2022-07-29T01:00:12.056Z,21.56
2022-07-29T01:01:12.092Z,21.45
2022-07-29T01:02:12.149Z,21.40
2022-07-29T01:03:12.019Z,21.41
2022-07-29T01:04:12.141Z,21.46
2022-07-29T01:05:12.031Z,21.53
2022-07-29T01:06:12.020Z,21.57
2022-07-29T01:07:12.043Z,21.59
2022-07-29T01:08:12.027Z,21.56
2022-07-29T01:09:12.042Z,21.55
2022-07-29T01:10:12.045Z,21.56
2022-07-29T01:11:12.070Z,21.58
2022-07-29T01:12:12.063Z,21.60
2022-07-29T01:13:12.041Z,21.61
2022-07-29T01:14:12.170Z,21.60
2022-07-29T01:15:12.047Z,21.57
2022-07-29T01:16:12.143Z,21.51
2022-07-29T01:17:12.058Z,21.48
2022-07-29T01:18:12.049Z,21.50
2022-07-29T01:19:12.088Z,21.51
2022-07-29T01:20:16.727Z,21.52
2022-07-29T01:21:12.070Z,21.55
2022-07-29T01:22:12.056Z,21.59
2022-07-29T01:23:12.080Z,21.62
2022-07-29T01:24:12.234Z,21.65
2022-07-29T01:25:12.068Z,21.68
2022-07-29T01:26:12.086Z,21.71
2022-07-29T01:27:12.105Z,21.75
2022-07-29T01:28:12.092Z,21.77
2022-07-29T01:29:12.129Z,21.80
2022-07-29T01:30:13.034Z,21.82
2022-07-29T01:31:23.764Z,21.83
2022-07-29T01:32:20.287Z,21.87
2022-07-29T01:33:12.098Z,21.86
2022-07-29T01:34:12.248Z,21.85
2022-07-29T01:35:12.131Z,21.86
2022-07-29T01:36:12.107Z,21.84
2022-07-29T01:37:12.129Z,21.86
2022-07-29T01:38:12.100Z,21.87
2022-07-29T01:39:12.109Z,21.88
2022-07-29T01:40:12.135Z,21.92
2022-07-29T01:41:12.115Z,21.93
2022-07-29T01:42:12.128Z,21.94
2022-07-29T01:43:12.121Z,21.96
2022-07-29T01:44:12.343Z,21.98
2022-07-29T01:45:12.148Z,21.96
2022-07-29T01:46:12.169Z,21.94
2022-07-29T01:47:12.139Z,21.92
2022-07-29T01:48:12.129Z,21.93
2022-07-29T01:52:12.150Z,21.91
2022-07-29T01:53:12.149Z,21.86
2022-07-29T01:55:12.166Z,21.80
2022-07-29T01:56:12.153Z,21.77
2022-07-29T01:57:16.971Z,21.72
2022-07-29T01:58:12.162Z,21.67
2022-07-29T01:59:12.208Z,21.62
2022-07-29T02:00:12.171Z,21.66
2022-07-29T02:01:12.189Z,21.63
2022-07-29T02:02:12.216Z,21.57
2022-07-29T02:03:12.180Z,21.49
2022-07-29T02:04:12.335Z,21.39
2022-07-29T02:05:12.241Z,21.26
2022-07-29T02:06:12.189Z,21.18
2022-07-29T02:07:12.185Z,21.15
2022-07-29T02:08:12.195Z,21.17
2022-07-29T02:09:12.201Z,21.15
2022-07-29T02:10:12.221Z,21.16
2022-07-29T02:11:12.212Z,21.19
2022-07-29T02:12:12.201Z,21.17
2022-07-29T02:13:12.200Z,21.15
2022-07-29T02:14:12.258Z,21.11
2022-07-29T02:15:12.216Z,21.10
2022-07-29T02:16:12.291Z,21.14
2022-07-29T02:17:12.206Z,21.19
2022-07-29T02:18:12.254Z,21.25
2022-07-29T02:19:12.210Z,21.28
2022-07-29T02:22:12.222Z,21.27
2022-07-29T02:23:12.245Z,21.28
2022-07-29T02:24:12.354Z,21.29
2022-07-29T02:25:14.177Z,21.30
2022-07-29T02:26:12.224Z,21.33
2022-07-29T02:27:12.236Z,21.34
2022-07-29T02:28:12.235Z,21.35
2022-07-29T02:29:12.233Z,21.39
2022-07-29T02:31:12.341Z,21.37
2022-07-29T02:32:12.272Z,21.31
2022-07-29T02:33:12.284Z,21.35
2022-07-29T02:34:17.658Z,21.31
2022-07-29T02:35:12.254Z,21.27
2022-07-29T02:36:12.270Z,21.22
2022-07-29T02:37:12.260Z,21.17
2022-07-29T02:39:12.276Z,21.19
2022-07-29T02:40:12.270Z,21.20
2022-07-29T02:41:12.286Z,21.15
2022-07-29T02:42:12.294Z,21.08
2022-07-29T02:43:12.270Z,21.07
2022-07-29T02:44:12.510Z,21.04
2022-07-29T02:45:12.298Z,20.98
2022-07-29T02:46:14.815Z,20.90
2022-07-29T02:47:12.307Z,20.82
2022-07-29T02:48:12.289Z,20.79
2022-07-29T02:49:12.366Z,20.82
2022-07-29T02:50:12.283Z,20.81
2022-07-29T02:51:15.129Z,20.78
2022-07-29T02:52:12.325Z,20.79
2022-07-29T02:55:12.325Z,20.76
2022-07-29T02:57:12.327Z,20.74
2022-07-29T02:58:12.315Z,20.76
2022-07-29T02:59:12.317Z,20.78
2022-07-29T03:01:12.407Z,20.74
2022-07-29T03:02:12.447Z,20.67
2022-07-29T03:03:12.324Z,20.56
2022-07-29T03:04:12.564Z,20.45
2022-07-29T03:05:12.398Z,20.32
2022-07-29T03:06:37.559Z,20.27
2022-07-29T03:08:12.391Z,20.31
2022-07-29T03:09:13.509Z,20.37
2022-07-29T03:10:13.453Z,20.41
2022-07-29T03:11:17.331Z,20.45
2022-07-29T03:12:12.338Z,20.48
2022-07-29T03:13:12.347Z,20.56
2022-07-29T03:14:12.565Z,20.66
2022-07-29T03:15:12.358Z,20.76
2022-07-29T03:16:12.398Z,20.84
2022-07-29T03:17:12.376Z,20.92
2022-07-29T03:18:12.378Z,20.98
2022-07-29T03:19:12.384Z,21.07
2022-07-29T03:20:12.375Z,21.12
2022-07-29T03:21:12.387Z,21.18
2022-07-29T03:22:12.380Z,21.23
2022-07-29T03:23:12.381Z,21.27
2022-07-29T03:24:12.493Z,21.29
2022-07-29T03:25:12.398Z,21.33
2022-07-29T03:26:12.383Z,21.26
2022-07-29T03:27:12.376Z,21.22
2022-07-29T03:28:12.390Z,21.17
2022-07-29T03:30:12.409Z,21.22
2022-07-29T03:31:12.443Z,21.27
2022-07-29T03:32:12.406Z,21.30
2022-07-29T03:33:13.433Z,21.34
2022-07-29T03:35:12.403Z,21.33
2022-07-29T03:36:12.404Z,21.30
2022-07-29T03:37:12.419Z,21.22
2022-07-29T03:38:12.398Z,21.19
2022-07-29T03:39:12.420Z,21.11
2022-07-29T03:41:12.439Z,21.13
2022-07-29T03:42:12.438Z,21.18
2022-07-29T03:43:12.427Z,21.17
2022-07-29T03:44:12.772Z,21.15
2022-07-29T03:45:12.698Z,21.14
2022-07-29T03:46:12.504Z,21.12
2022-07-29T03:47:12.439Z,21.11
2022-07-29T03:48:12.447Z,21.03
2022-07-29T03:49:12.583Z,21.01
2022-07-29T03:50:12.462Z,20.99
2022-07-29T03:51:12.455Z,21.01
2022-07-29T03:52:12.453Z,21.00
2022-07-29T03:53:12.463Z,20.96
2022-07-29T03:54:12.461Z,20.95
2022-07-29T03:55:12.500Z,20.85
2022-07-29T03:56:12.445Z,20.71
2022-07-29T03:57:12.458Z,20.61
2022-07-29T03:58:12.467Z,20.35
2022-07-29T03:59:12.468Z,20.27
2022-07-29T04:00:12.509Z,20.25
2022-07-29T04:01:12.528Z,20.24
2022-07-29T04:02:12.580Z,20.27
2022-07-29T04:03:12.521Z,20.31
2022-07-29T04:04:12.783Z,20.37
2022-07-29T04:05:12.480Z,20.43
2022-07-29T04:06:12.504Z,20.49
2022-07-29T04:07:12.486Z,20.48
2022-07-29T04:08:12.493Z,20.47
2022-07-29T04:09:12.495Z,20.40
2022-07-29T04:11:12.513Z,20.28
2022-07-29T04:12:12.513Z,20.20
2022-07-29T04:13:12.552Z,20.12
2022-07-29T04:15:12.532Z,20.14
2022-07-29T04:16:12.544Z,20.20
2022-07-29T04:17:12.516Z,20.29
2022-07-29T04:18:12.523Z,20.42
2022-07-29T04:19:12.534Z,20.53
2022-07-29T04:20:12.528Z,20.64
2022-07-29T04:21:12.521Z,20.70
2022-07-29T04:22:12.947Z,20.76
2022-07-29T04:23:12.548Z,20.80
2022-07-29T04:24:12.885Z,20.83
2022-07-29T04:25:12.532Z,20.88
2022-07-29T04:26:12.561Z,20.89
2022-07-29T04:27:12.544Z,20.92
2022-07-29T04:28:12.571Z,20.95
2022-07-29T04:29:12.556Z,20.98
2022-07-29T04:30:12.551Z,20.97
2022-07-29T04:32:12.554Z,20.96
2022-07-29T04:35:12.580Z,21.00
2022-07-29T04:36:28.852Z,21.03
2022-07-29T04:37:12.568Z,21.04
2022-07-29T04:38:15.812Z,21.03
2022-07-29T04:39:12.593Z,20.98
2022-07-29T04:40:12.571Z,20.97
2022-07-29T04:41:12.578Z,20.98
2022-07-29T04:42:12.582Z,21.00
2022-07-29T04:43:12.616Z,21.02
2022-07-29T04:44:12.774Z,20.99
2022-07-29T04:45:12.589Z,20.86
2022-07-29T04:46:12.707Z,20.83
2022-07-29T04:47:12.577Z,20.84
2022-07-29T04:48:12.606Z,20.85
2022-07-29T04:49:12.700Z,20.86
2022-07-29T04:50:12.611Z,20.84
2022-07-29T04:51:12.624Z,20.85
2022-07-29T04:53:12.623Z,20.86
2022-07-29T04:54:12.882Z,20.84
2022-07-29T04:55:12.610Z,20.86
2022-07-29T04:56:12.671Z,20.87
2022-07-29T04:57:12.606Z,20.89
2022-07-29T04:58:12.620Z,20.90
2022-07-29T04:59:13.201Z,20.91
2022-07-29T05:00:12.623Z,20.94
2022-07-29T05:01:12.679Z,20.93
2022-07-29T05:03:12.695Z,20.95
2022-07-29T05:04:12.986Z,20.98
2022-07-29T05:05:12.630Z,21.00
2022-07-29T05:06:12.655Z,21.04
2022-07-29T05:07:12.647Z,21.08
2022-07-29T05:08:12.640Z,21.11
2022-07-29T05:09:12.712Z,21.12
2022-07-29T05:10:12.654Z,21.07
2022-07-29T05:11:14.924Z,21.03
2022-07-29T05:12:12.647Z,20.99
2022-07-29T05:13:12.660Z,20.89
2022-07-29T05:14:13.032Z,20.70
2022-07-29T05:15:12.662Z,20.67
2022-07-29T05:16:12.869Z,20.71
2022-07-29T05:17:12.690Z,20.77
2022-07-29T05:18:12.699Z,20.83
2022-07-29T05:19:14.614Z,20.90
2022-07-29T05:20:12.704Z,20.98
2022-07-29T05:21:12.665Z,21.06
2022-07-29T05:22:12.750Z,21.14
2022-07-29T05:23:12.680Z,21.15
2022-07-29T05:24:13.001Z,21.16
2022-07-29T05:25:12.697Z,21.18
2022-07-29T05:26:12.695Z,21.23
2022-07-29T05:27:12.697Z,21.29
2022-07-29T05:28:12.715Z,21.35
2022-07-29T05:29:43.770Z,21.40
2022-07-29T05:31:12.852Z,21.39
2022-07-29T05:32:12.716Z,21.20
2022-07-29T05:33:35.771Z,21.06
2022-07-29T05:34:12.796Z,21.04
2022-07-29T05:36:13.362Z,21.07
2022-07-29T05:38:12.726Z,21.01
2022-07-29T05:39:12.765Z,20.98
2022-07-29T05:40:12.778Z,20.97
2022-07-29T05:41:12.731Z,21.00
2022-07-29T05:42:12.786Z,20.97
2022-07-29T05:43:12.775Z,20.96
2022-07-29T05:44:12.965Z,21.03
2022-07-29T05:45:12.749Z,21.06
2022-07-29T05:46:12.831Z,21.12
2022-07-29T05:47:12.744Z,21.15
2022-07-29T05:48:12.749Z,21.19
2022-07-29T05:49:12.825Z,21.26
2022-07-29T05:50:12.747Z,21.34
2022-07-29T05:51:12.758Z,21.35
2022-07-29T05:52:12.755Z,21.42
2022-07-29T05:53:19.898Z,21.37
2022-07-29T05:54:13.010Z,21.39
2022-07-29T05:55:12.819Z,21.18
2022-07-29T05:56:12.756Z,20.98
2022-07-29T05:57:12.814Z,20.94
2022-07-29T05:58:12.802Z,21.00
2022-07-29T05:59:15.540Z,21.06
2022-07-29T06:01:12.866Z,21.12
2022-07-29T06:02:12.807Z,21.21
2022-07-29T06:03:12.815Z,21.29
2022-07-29T06:04:13.081Z,21.37
2022-07-29T06:05:16.255Z,21.44
2022-07-29T06:06:12.798Z,21.54
2022-07-29T06:07:12.803Z,21.62
2022-07-29T06:08:12.813Z,21.75
2022-07-29T06:09:13.822Z,21.79
2022-07-29T06:10:12.820Z,21.77
2022-07-29T06:11:12.843Z,21.74
2022-07-29T06:12:12.885Z,21.62
2022-07-29T06:13:13.547Z,21.56
2022-07-29T06:14:13.092Z,21.55
2022-07-29T06:15:12.839Z,21.57
2022-07-29T06:16:12.849Z,21.64
2022-07-29T06:17:12.834Z,21.71
2022-07-29T06:18:12.861Z,21.76
2022-07-29T06:19:12.839Z,21.81
2022-07-29T06:20:12.841Z,21.88
2022-07-29T06:21:12.873Z,21.95
2022-07-29T06:22:12.867Z,21.99
2022-07-29T06:23:12.867Z,22.07
2022-07-29T06:24:13.137Z,22.01
2022-07-29T06:25:12.890Z,21.85
2022-07-29T06:26:12.866Z,21.86
2022-07-29T06:27:12.892Z,21.90
2022-07-29T06:28:12.873Z,21.87
2022-07-29T06:29:12.882Z,21.83
2022-07-29T06:30:12.901Z,21.82
2022-07-29T06:31:13.006Z,21.81
2022-07-29T06:32:12.867Z,21.79
2022-07-29T06:33:12.879Z,21.80
2022-07-29T06:35:37.996Z,21.77
2022-07-29T06:36:12.873Z,21.61
2022-07-29T06:37:15.532Z,21.54
2022-07-29T06:38:30.488Z,21.46
2022-07-29T06:39:13.101Z,21.48
2022-07-29T06:40:12.889Z,21.54
2022-07-29T06:41:12.892Z,21.56
2022-07-29T06:42:12.896Z,21.59
2022-07-29T06:43:12.946Z,21.58
2022-07-29T06:44:13.214Z,21.60
2022-07-29T06:45:12.902Z,21.66
2022-07-29T06:46:12.971Z,21.69
2022-07-29T06:47:12.890Z,21.73
2022-07-29T06:48:12.936Z,21.57
2022-07-29T06:49:12.973Z,21.36
2022-07-29T06:50:13.768Z,21.23
2022-07-29T06:51:12.906Z,21.04
2022-07-29T06:52:12.898Z,20.86
2022-07-29T06:53:12.927Z,20.82
2022-07-29T06:54:12.954Z,20.90
2022-07-29T06:55:12.914Z,20.98
2022-07-29T06:56:12.940Z,21.06
2022-07-29T06:57:12.933Z,21.05
2022-07-29T06:58:12.917Z,21.11
2022-07-29T06:59:12.932Z,21.15
2022-07-29T07:00:12.955Z,21.02
2022-07-29T07:01:12.957Z,20.95
2022-07-29T07:02:12.981Z,20.83
2022-07-29T07:03:12.942Z,20.70
2022-07-29T07:04:13.084Z,20.59
2022-07-29T07:05:13.035Z,20.53
2022-07-29T07:06:15.101Z,20.55
2022-07-29T07:07:12.978Z,20.44
2022-07-29T07:08:12.966Z,20.14
2022-07-29T07:09:12.973Z,19.89
2022-07-29T07:10:13.065Z,19.79
2022-07-29T07:11:12.980Z,19.72
2022-07-29T07:12:12.978Z,19.69
2022-07-29T07:13:12.971Z,19.68
2022-07-29T07:14:12.985Z,19.56
2022-07-29T07:15:12.967Z,19.58
2022-07-29T07:16:13.042Z,19.50
2022-07-29T07:17:12.978Z,19.48
2022-07-29T07:18:12.979Z,19.52
2022-07-29T07:19:13.003Z,19.58
2022-07-29T07:20:13.262Z,19.60
2022-07-29T07:21:12.992Z,19.75
2022-07-29T07:22:13.005Z,19.82
2022-07-29T07:23:13.007Z,19.94
2022-07-29T07:24:13.227Z,20.07
2022-07-29T07:25:12.997Z,20.15
2022-07-29T07:26:13.013Z,20.22
2022-07-29T07:27:13.981Z,20.43
2022-07-29T07:28:13.015Z,20.54
2022-07-29T07:29:13.044Z,20.61
2022-07-29T07:30:13.016Z,20.69
2022-07-29T07:32:13.058Z,20.66
2022-07-29T07:33:13.031Z,20.65
2022-07-29T07:34:13.456Z,20.64
2022-07-29T07:35:13.030Z,20.56
2022-07-29T07:36:13.043Z,20.50
2022-07-29T07:37:13.022Z,20.45
2022-07-29T07:38:13.051Z,20.30
2022-07-29T07:39:13.028Z,20.27
2022-07-29T07:40:13.041Z,20.19
2022-07-29T07:41:13.044Z,19.99
2022-07-29T07:42:13.070Z,19.91
2022-07-29T07:43:13.050Z,19.88
2022-07-29T07:44:16.122Z,19.84
2022-07-29T07:45:16.132Z,19.71
2022-07-29T07:46:13.168Z,19.64
2022-07-29T07:47:13.050Z,19.56
2022-07-29T07:48:13.061Z,19.47
2022-07-29T07:49:13.135Z,19.42
2022-07-29T07:50:18.394Z,19.43
2022-07-29T07:51:13.075Z,19.53
2022-07-29T07:52:13.065Z,19.67
2022-07-29T07:53:13.075Z,19.84
2022-07-29T07:54:13.438Z,19.99
2022-07-29T07:55:13.085Z,20.13
2022-07-29T07:56:13.157Z,20.24
2022-07-29T07:57:13.075Z,20.35
2022-07-29T07:58:13.097Z,20.45
2022-07-29T07:59:13.105Z,20.56
2022-07-29T08:00:13.095Z,20.64
2022-07-29T08:01:13.207Z,20.73
2022-07-29T08:02:13.196Z,20.80
2022-07-29T08:03:17.058Z,20.87
2022-07-29T08:04:14.622Z,20.81
2022-07-29T08:06:13.106Z,20.89
2022-07-29T08:08:13.110Z,20.81
2022-07-29T08:09:28.254Z,20.84
2022-07-29T08:10:13.139Z,20.86
2022-07-29T08:11:13.117Z,20.90
2022-07-29T08:12:13.104Z,20.94
2022-07-29T08:14:13.801Z,20.79
2022-07-29T08:15:13.135Z,20.65
2022-07-29T08:16:13.217Z,20.45
2022-07-29T08:17:13.180Z,20.41
2022-07-29T08:18:13.148Z,20.39
2022-07-29T08:19:13.156Z,20.47
2022-07-29T08:20:13.171Z,20.54
2022-07-29T08:21:15.117Z,20.62
2022-07-29T08:22:13.149Z,20.73
2022-07-29T08:23:13.150Z,20.81
2022-07-29T08:24:13.153Z,20.87
2022-07-29T08:25:13.151Z,20.96
2022-07-29T08:26:13.158Z,21.03
2022-07-29T08:27:40.611Z,21.10
2022-07-29T08:28:13.153Z,21.16
2022-07-29T08:30:13.203Z,21.20
2022-07-29T08:31:13.179Z,21.17
2022-07-29T08:32:13.307Z,21.13
2022-07-29T08:34:13.191Z,21.12
2022-07-29T08:35:13.189Z,20.86
2022-07-29T08:36:13.173Z,20.54
2022-07-29T08:37:13.187Z,20.44
2022-07-29T08:38:13.191Z,20.38
2022-07-29T08:39:13.204Z,20.32
2022-07-29T08:40:13.257Z,20.39
2022-07-29T08:41:14.413Z,20.49
2022-07-29T08:42:13.197Z,20.60
2022-07-29T08:43:13.202Z,20.73
2022-07-29T08:44:13.220Z,20.86
2022-07-29T08:45:13.209Z,20.98
2022-07-29T08:46:13.267Z,21.12
2022-07-29T08:47:13.217Z,21.24
2022-07-29T08:48:13.209Z,21.33
2022-07-29T08:49:13.280Z,21.40
2022-07-29T08:50:13.248Z,21.27
2022-07-29T08:51:13.218Z,21.06
2022-07-29T08:52:13.238Z,20.91
2022-07-29T08:53:13.229Z,20.78
2022-07-29T08:54:13.246Z,20.70
2022-07-29T08:55:13.232Z,20.71
2022-07-29T08:56:13.225Z,20.83
2022-07-29T08:57:13.240Z,21.01
2022-07-29T08:58:13.245Z,21.16
2022-07-29T08:59:13.227Z,21.36
2022-07-29T09:00:13.269Z,21.48
2022-07-29T09:01:13.910Z,21.59
2022-07-29T09:02:13.265Z,21.72
2022-07-29T09:03:13.293Z,21.82
2022-07-29T09:04:13.245Z,22.02
2022-07-29T09:05:13.284Z,22.08
2022-07-29T09:06:13.277Z,22.23
2022-07-29T09:07:13.269Z,22.46
2022-07-29T09:08:13.253Z,22.75
2022-07-29T09:09:13.255Z,23.10
2022-07-29T09:10:13.313Z,23.47
2022-07-29T09:11:13.277Z,23.88
2022-07-29T09:12:13.281Z,24.23
2022-07-29T09:13:13.260Z,24.53
2022-07-29T09:14:13.281Z,24.80
2022-07-29T09:15:13.285Z,25.06
2022-07-29T09:16:22.404Z,25.23
2022-07-29T09:17:13.326Z,25.36
2022-07-29T09:18:20.350Z,25.50
2022-07-29T09:19:13.290Z,25.56
2022-07-29T09:20:13.314Z,25.59
2022-07-29T09:21:13.299Z,25.65
2022-07-29T09:22:13.298Z,25.56
2022-07-29T09:24:13.306Z,25.52
2022-07-29T09:25:13.315Z,25.50
2022-07-29T09:26:13.319Z,25.46
2022-07-29T09:27:13.317Z,25.47
2022-07-29T09:28:13.333Z,25.40
2022-07-29T09:30:13.388Z,25.36
2022-07-29T09:31:13.367Z,25.28
2022-07-29T09:32:13.326Z,25.33
2022-07-29T09:33:13.337Z,25.47
2022-07-29T09:34:13.331Z,25.63
2022-07-29T09:35:13.343Z,25.62
2022-07-29T09:36:13.326Z,25.68
2022-07-29T09:37:13.354Z,25.74
2022-07-29T09:38:13.361Z,25.76
2022-07-29T09:39:13.335Z,25.84
2022-07-29T09:40:13.370Z,25.91
2022-07-29T09:41:13.346Z,25.95
2022-07-29T09:42:13.361Z,26.00
2022-07-29T09:43:13.384Z,25.84
2022-07-29T09:44:13.350Z,25.85
2022-07-29T09:45:13.359Z,25.82
2022-07-29T09:46:13.374Z,25.74
2022-07-29T09:47:13.426Z,25.61
2022-07-29T09:48:13.360Z,25.60
2022-07-29T09:49:13.478Z,25.67
2022-07-29T09:50:13.404Z,25.86
2022-07-29T09:51:17.028Z,26.05
2022-07-29T09:52:13.382Z,26.19
2022-07-29T09:53:13.393Z,26.28
2022-07-29T09:54:13.380Z,26.32
2022-07-29T09:55:18.186Z,26.34
2022-07-29T09:56:13.407Z,26.33
2022-07-29T09:57:13.427Z,26.37
2022-07-29T09:59:13.390Z,26.45
2022-07-29T10:00:13.428Z,26.54
2022-07-29T10:01:13.493Z,26.64
2022-07-29T10:02:13.406Z,26.76
2022-07-29T10:03:13.466Z,26.89
2022-07-29T10:04:13.411Z,26.98
2022-07-29T10:05:13.413Z,27.09
2022-07-29T10:06:13.418Z,27.12
2022-07-29T10:07:13.418Z,27.21
2022-07-29T10:08:13.512Z,27.33
2022-07-29T10:09:13.432Z,27.45
2022-07-29T10:10:13.425Z,27.60
2022-07-29T10:11:13.452Z,27.79
2022-07-29T10:12:13.437Z,27.85
2022-07-29T10:13:15.730Z,27.87
2022-07-29T10:14:13.437Z,27.91
2022-07-29T10:15:13.452Z,27.90
2022-07-29T10:16:13.995Z,27.70
2022-07-29T10:17:13.439Z,27.59
2022-07-29T10:18:13.461Z,27.32
2022-07-29T10:19:13.453Z,27.29
2022-07-29T10:20:16.367Z,27.30
2022-07-29T10:21:35.154Z,27.35
2022-07-29T10:22:14.996Z,27.31
2022-07-29T10:23:13.455Z,27.25
2022-07-29T10:24:14.876Z,27.23
2022-07-29T10:25:13.467Z,27.04
2022-07-29T10:26:13.477Z,26.87
2022-07-29T10:27:13.485Z,26.81
2022-07-29T10:28:16.425Z,26.86
2022-07-29T10:29:13.472Z,27.02
2022-07-29T10:30:13.489Z,27.17
2022-07-29T10:31:13.521Z,27.36
2022-07-29T10:32:15.051Z,27.44
2022-07-29T10:33:13.496Z,27.48
2022-07-29T10:34:13.497Z,27.53
2022-07-29T10:35:13.515Z,27.57
2022-07-29T10:36:14.309Z,27.64
2022-07-29T10:37:13.515Z,27.71
2022-07-29T10:38:16.524Z,27.78
2022-07-29T10:39:15.449Z,27.81
2022-07-29T10:40:13.520Z,27.76
2022-07-29T10:41:13.583Z,27.66
2022-07-29T10:42:13.522Z,27.75
2022-07-29T10:43:13.525Z,27.80
2022-07-29T10:44:17.464Z,27.91
2022-07-29T10:45:13.532Z,28.00
2022-07-29T10:46:13.568Z,28.04
2022-07-29T10:47:13.533Z,28.05
2022-07-29T10:48:13.535Z,28.02
2022-07-29T10:49:15.207Z,28.05
2022-07-29T10:50:17.293Z,28.21
2022-07-29T10:51:13.562Z,28.44
2022-07-29T10:52:13.537Z,28.64
2022-07-29T10:53:14.231Z,28.84
2022-07-29T10:54:13.543Z,28.97
2022-07-29T10:55:13.538Z,29.09
2022-07-29T10:56:17.395Z,29.25
2022-07-29T10:57:13.542Z,29.41
2022-07-29T10:58:13.554Z,29.46
2022-07-29T10:59:13.564Z,29.45
2022-07-29T11:00:13.617Z,29.41
2022-07-29T11:01:13.585Z,29.32
2022-07-29T11:02:36.512Z,29.30
2022-07-29T11:03:13.587Z,29.32
2022-07-29T11:04:13.573Z,29.20
2022-07-29T11:05:13.583Z,28.84
2022-07-29T11:06:13.616Z,28.69
2022-07-29T11:07:13.587Z,28.60
2022-07-29T11:08:16.499Z,28.59
2022-07-29T11:09:15.293Z,28.54
2022-07-29T11:10:13.856Z,28.56
2022-07-29T11:11:15.804Z,28.57
2022-07-29T11:12:13.593Z,28.48
2022-07-29T11:13:13.609Z,28.46
2022-07-29T11:14:13.592Z,28.42
2022-07-29T11:15:13.586Z,28.45
2022-07-29T11:16:13.619Z,28.48
2022-07-29T11:17:13.963Z,28.50
2022-07-29T11:18:15.097Z,28.53
2022-07-29T11:19:13.905Z,28.54
2022-07-29T11:20:13.619Z,28.48
2022-07-29T11:21:13.616Z,28.45
2022-07-29T11:22:16.670Z,28.43
2022-07-29T11:23:13.629Z,28.38
2022-07-29T11:24:13.617Z,28.28
2022-07-29T11:25:13.644Z,28.20
2022-07-29T11:26:13.656Z,28.16
2022-07-29T11:27:13.671Z,28.01
2022-07-29T11:28:13.639Z,27.95
2022-07-29T11:29:13.674Z,27.93
2022-07-29T11:30:14.562Z,27.98
2022-07-29T11:31:13.650Z,28.06
2022-07-29T11:32:18.080Z,28.10
2022-07-29T11:33:13.645Z,28.18
2022-07-29T11:34:13.649Z,28.24
2022-07-29T11:35:17.221Z,28.30
2022-07-29T11:36:16.911Z,28.38
2022-07-29T11:37:13.683Z,28.42
2022-07-29T11:38:13.660Z,28.50
2022-07-29T11:39:13.653Z,28.39
2022-07-29T11:40:13.676Z,28.29
2022-07-29T11:41:13.650Z,28.20
2022-07-29T11:43:13.685Z,28.23
2022-07-29T11:44:13.685Z,28.24
2022-07-29T11:46:15.528Z,28.20
2022-07-29T11:47:13.691Z,28.22
2022-07-29T11:49:13.712Z,28.12
2022-07-29T11:50:13.760Z,28.04
2022-07-29T11:51:13.703Z,28.02
2022-07-29T11:52:13.772Z,27.97
2022-07-29T11:54:13.689Z,27.95
2022-07-29T11:55:13.697Z,27.98
2022-07-29T11:56:16.423Z,28.00
2022-07-29T11:57:13.715Z,28.01
2022-07-29T11:58:13.729Z,27.99
2022-07-29T12:00:14.577Z,27.96
2022-07-29T12:01:13.742Z,27.92
2022-07-29T12:03:13.769Z,27.90
2022-07-29T12:04:13.756Z,27.87
2022-07-29T12:05:14.483Z,27.91
2022-07-29T12:06:13.801Z,27.95
2022-07-29T12:07:15.558Z,27.97
2022-07-29T12:08:14.609Z,27.96
2022-07-29T12:09:14.712Z,27.95
2022-07-29T12:10:19.505Z,27.85
2022-07-29T12:11:13.746Z,27.76
2022-07-29T12:12:13.802Z,27.67
2022-07-29T12:13:13.757Z,27.69
2022-07-29T12:14:13.753Z,27.68
2022-07-29T12:15:13.773Z,27.66
2022-07-29T12:16:14.776Z,27.65
2022-07-29T12:17:13.777Z,27.64
2022-07-29T12:18:13.767Z,27.57
2022-07-29T12:19:13.789Z,27.56
2022-07-29T12:21:13.758Z,27.57
2022-07-29T12:23:16.138Z,27.54
2022-07-29T12:24:13.777Z,27.47
2022-07-29T12:25:32.869Z,27.45
2022-07-29T12:26:25.346Z,27.42
2022-07-29T12:28:14.125Z,27.36
2022-07-29T12:29:15.622Z,27.33
2022-07-29T12:30:13.793Z,27.36
2022-07-29T12:31:13.890Z,27.34
2022-07-29T12:32:14.568Z,27.31
2022-07-29T12:33:13.809Z,27.27
2022-07-29T12:35:14.019Z,27.26
2022-07-29T12:36:17.686Z,27.24
2022-07-29T12:37:13.811Z,27.14
2022-07-29T12:38:13.821Z,27.09
2022-07-29T12:39:13.860Z,26.86
2022-07-29T12:40:13.814Z,26.72
2022-07-29T12:41:13.828Z,26.62
2022-07-29T12:42:15.057Z,26.37
2022-07-29T12:43:13.837Z,26.29
2022-07-29T12:44:13.835Z,26.16
2022-07-29T12:45:13.860Z,26.13
2022-07-29T12:46:13.974Z,26.12
2022-07-29T12:47:13.853Z,26.00
2022-07-29T12:48:13.844Z,25.94
2022-07-29T12:49:13.922Z,25.81
2022-07-29T12:50:13.851Z,25.54
2022-07-29T12:51:13.858Z,25.47
2022-07-29T12:52:13.845Z,25.49
2022-07-29T12:53:13.860Z,25.39
2022-07-29T12:54:13.862Z,25.34
2022-07-29T12:55:13.896Z,25.10
2022-07-29T12:56:33.110Z,24.95
2022-07-29T12:57:20.064Z,24.82
2022-07-29T12:58:13.881Z,24.65
2022-07-29T12:59:14.366Z,24.50
2022-07-29T13:00:15.987Z,24.42
2022-07-29T13:01:17.061Z,24.46
2022-07-29T13:02:13.946Z,24.47
2022-07-29T13:03:13.873Z,24.44
2022-07-29T13:04:13.875Z,24.51
2022-07-29T13:05:13.890Z,24.65
2022-07-29T13:06:13.903Z,24.79
2022-07-29T13:07:14.614Z,24.82
2022-07-29T13:08:21.917Z,24.87
2022-07-29T13:09:13.900Z,24.98
2022-07-29T13:11:13.898Z,25.05
2022-07-29T13:12:13.909Z,25.15
2022-07-29T13:13:13.915Z,25.18
2022-07-29T13:14:13.903Z,25.19
2022-07-29T13:15:13.907Z,24.92
2022-07-29T13:16:14.035Z,24.69
2022-07-29T13:17:13.928Z,24.67
2022-07-29T13:18:17.698Z,24.65
2022-07-29T13:19:13.932Z,24.72
2022-07-29T13:20:13.941Z,24.79
2022-07-29T13:21:13.942Z,24.67
2022-07-29T13:22:13.950Z,24.69
2022-07-29T13:23:13.950Z,24.75
2022-07-29T13:24:16.868Z,24.85
2022-07-29T13:25:13.930Z,24.96
2022-07-29T13:26:13.933Z,25.04
2022-07-29T13:27:13.944Z,25.10
2022-07-29T13:28:13.956Z,25.11
2022-07-29T13:29:13.959Z,25.07
2022-07-29T13:30:13.994Z,24.97
2022-07-29T13:31:14.119Z,24.88
2022-07-29T13:32:13.962Z,24.77
2022-07-29T13:33:13.965Z,24.66
2022-07-29T13:34:13.972Z,24.55
2022-07-29T13:35:13.964Z,24.47
2022-07-29T13:36:13.966Z,24.38
2022-07-29T13:37:16.207Z,24.32
2022-07-29T13:38:13.973Z,24.29
2022-07-29T13:39:13.965Z,24.25
2022-07-29T13:40:13.982Z,24.19
2022-07-29T13:41:14.000Z,24.02
2022-07-29T13:42:13.992Z,23.97
2022-07-29T13:43:13.990Z,23.87
2022-07-29T13:44:14.002Z,23.80
2022-07-29T13:45:14.024Z,23.77